Time;durP1;ratioP1;P1;durP2;ratioP2;P2;SDS_P1;SDS_P2;PMS_P1;PMS_P2;Temp;Humidity;BMP_temperature;BMP_pressure;BME280_temperature;BME280_humidity;BME280_pressure;Samples;Min_cycle;Max_cycle;Signal;HPM_P1;HPM_P2
2023/12/12 00:02:02;;;;;;;17.60;13.40;;;6.80;99.90;;;;;;5025740;28;20262;-84
2023/12/12 00:04:29;;;;;;;20.33;13.83;;;6.70;99.90;;;;;;5008618;28;20239;-84
2023/12/12 00:06:57;;;;;;;19.17;13.90;;;6.70;99.90;;;;;;5010687;28;20340;-84
2023/12/12 00:09:25;;;;;;;19.13;13.57;;;6.70;99.90;;;;;;5018185;28;20245;-84
2023/12/12 00:11:52;;;;;;;18.50;13.87;;;6.80;99.90;;;;;;5007154;28;20308;-84
2023/12/12 00:14:19;;;;;;;20.30;14.57;;;6.70;99.90;;;;;;5006748;28;20233;-84
2023/12/12 00:16:46;;;;;;;24.57;15.10;;;6.70;99.90;;;;;;5014721;28;20249;-84
2023/12/12 00:19:14;;;;;;;27.07;15.03;;;6.70;99.90;;;;;;5018585;28;20233;-84
2023/12/12 00:21:41;;;;;;;22.70;14.83;;;6.60;99.90;;;;;;5010392;28;20221;-84
2023/12/12 00:24:09;;;;;;;25.90;15.10;;;6.60;99.90;;;;;;5021651;28;20283;-85
2023/12/12 00:26:36;;;;;;;25.17;15.87;;;6.60;99.90;;;;;;5008128;28;20293;-84
2023/12/12 00:29:03;;;;;;;24.70;16.27;;;6.60;99.90;;;;;;5022800;28;20312;-85
2023/12/12 00:31:31;;;;;;;23.83;16.10;;;6.60;99.90;;;;;;5005854;28;20602;-84
2023/12/12 00:33:58;;;;;;;23.13;15.30;;;6.60;99.90;;;;;;5007759;28;20241;-84
2023/12/12 00:36:25;;;;;;;31.63;16.43;;;6.60;99.90;;;;;;4994435;28;20239;-84
2023/12/12 00:38:52;;;;;;;29.60;17.20;;;6.50;99.90;;;;;;5001929;28;20231;-84
2023/12/12 00:41:20;;;;;;;25.87;16.37;;;6.50;99.90;;;;;;5007051;28;20246;-84
2023/12/12 00:43:47;;;;;;;22.80;14.87;;;6.50;99.90;;;;;;5007159;28;20345;-85
2023/12/12 00:46:14;;;;;;;21.43;14.73;;;6.50;99.90;;;;;;5022543;28;20889;-85
2023/12/12 00:48:40;;;;;;;22.63;14.97;;;6.50;99.90;;;;;;5027363;28;20236;-85
2023/12/12 00:51:08;;;;;;;24.80;14.63;;;6.50;99.90;;;;;;5027499;28;20694;-85
2023/12/12 00:53:35;;;;;;;24.47;15.03;;;6.50;99.90;;;;;;5028884;28;20234;-85
2023/12/12 00:56:02;;;;;;;24.30;14.60;;;6.50;99.90;;;;;;5013367;28;20714;-84
2023/12/12 00:58:30;;;;;;;24.67;14.07;;;6.50;99.90;;;;;;5007805;28;20317;-85
2023/12/12 01:00:57;;;;;;;26.97;15.30;;;6.50;99.90;;;;;;5007675;28;20490;-85
2023/12/12 01:03:23;;;;;;;26.60;15.90;;;6.50;99.90;;;;;;5009829;28;20351;-84
2023/12/12 01:05:49;;;;;;;28.60;15.93;;;6.40;99.90;;;;;;5023128;28;20330;-84
2023/12/12 01:08:17;;;;;;;29.97;16.80;;;6.40;99.90;;;;;;5008941;28;20302;-84
2023/12/12 01:10:43;;;;;;;23.83;14.00;;;6.40;99.90;;;;;;5005156;28;20313;-85
2023/12/12 01:13:10;;;;;;;28.57;14.23;;;6.40;99.90;;;;;;5023421;28;20310;-84
2023/12/12 01:15:39;;;;;;;29.30;13.73;;;6.30;99.90;;;;;;5010178;28;20274;-85
2023/12/12 01:18:07;;;;;;;25.13;13.07;;;6.30;99.90;;;;;;5006303;28;20235;-85
2023/12/12 01:20:34;;;;;;;25.23;12.33;;;6.20;99.90;;;;;;5019799;28;20232;-84
2023/12/12 01:23:00;;;;;;;24.17;12.27;;;6.20;99.90;;;;;;5006479;28;20265;-85
2023/12/12 01:25:27;;;;;;;22.47;11.63;;;6.20;99.90;;;;;;5020933;28;20307;-85
2023/12/12 01:27:54;;;;;;;21.13;11.30;;;6.10;99.90;;;;;;5008835;28;20303;-85
2023/12/12 01:30:21;;;;;;;25.93;11.47;;;6.10;99.90;;;;;;5014467;28;20314;-84
2023/12/12 01:32:49;;;;;;;22.77;11.77;;;6.10;99.90;;;;;;5009399;28;20229;-84
2023/12/12 01:35:15;;;;;;;20.50;11.57;;;6.10;99.90;;;;;;5019018;28;20236;-83
2023/12/12 01:37:42;;;;;;;20.30;11.07;;;6.10;99.90;;;;;;5008291;28;20524;-84
2023/12/12 01:40:12;;;;;;;21.27;11.30;;;6.10;99.90;;;;;;5000133;28;20226;-84
2023/12/12 01:42:39;;;;;;;20.50;11.97;;;6.10;99.90;;;;;;5005083;28;20245;-84
2023/12/12 01:45:07;;;;;;;21.40;12.60;;;6.10;99.90;;;;;;5000020;28;20312;-84
2023/12/12 01:47:34;;;;;;;22.43;12.43;;;6.10;99.90;;;;;;5018596;28;20270;-84
2023/12/12 01:50:03;;;;;;;22.23;11.70;;;6.10;99.90;;;;;;5004148;28;20277;-84
2023/12/12 01:52:31;;;;;;;21.57;12.30;;;6.10;99.90;;;;;;5004193;28;20227;-84
2023/12/12 01:54:59;;;;;;;23.30;11.83;;;6.10;99.90;;;;;;4992997;28;20229;-84
2023/12/12 01:57:26;;;;;;;24.10;12.73;;;6.20;99.90;;;;;;4998286;28;20256;-84
2023/12/12 01:59:54;;;;;;;44.10;13.80;;;6.20;99.90;;;;;;5015220;28;20223;-83
2023/12/12 02:02:21;;;;;;;21.07;11.03;;;6.20;99.90;;;;;;5003486;28;20276;-84
2023/12/12 02:04:49;;;;;;;21.10;12.03;;;6.20;99.90;;;;;;4988804;28;20329;-84
2023/12/12 02:07:19;;;;;;;22.90;12.33;;;6.20;99.90;;;;;;4983446;28;20311;-83
2023/12/12 02:09:46;;;;;;;18.90;11.20;;;6.20;99.90;;;;;;5017733;28;20307;-84
2023/12/12 02:12:13;;;;;;;22.33;11.77;;;6.30;99.90;;;;;;5019408;28;20235;-84
2023/12/12 02:14:40;;;;;;;25.27;13.10;;;6.30;99.90;;;;;;5001852;28;20234;-84
2023/12/12 02:17:07;;;;;;;21.50;12.00;;;6.30;99.90;;;;;;4987660;28;20310;-84
2023/12/12 02:19:34;;;;;;;26.87;13.53;;;6.30;99.90;;;;;;4975296;28;20248;-84
2023/12/12 02:22:02;;;;;;;21.30;11.97;;;6.30;99.90;;;;;;4986281;28;20251;-83
2023/12/12 02:24:29;;;;;;;23.20;12.67;;;6.30;99.90;;;;;;4997279;28;20235;-85
2023/12/12 02:26:56;;;;;;;24.33;12.63;;;6.30;99.90;;;;;;4989893;28;20268;-85
2023/12/12 02:29:23;;;;;;;26.97;12.80;;;6.40;99.90;;;;;;5014802;28;20229;-86
2023/12/12 02:31:50;;;;;;;23.20;12.10;;;6.40;99.90;;;;;;5021932;28;20820;-84
2023/12/12 02:34:17;;;;;;;41.77;14.53;;;6.40;99.90;;;;;;4984090;28;20320;-84
2023/12/12 02:36:44;;;;;;;40.83;12.50;;;6.40;99.90;;;;;;5004494;28;20256;-84
2023/12/12 02:39:14;;;;;;;31.83;13.67;;;6.40;99.90;;;;;;5000887;28;20731;-85
2023/12/12 02:41:40;;;;;;;26.13;12.67;;;6.40;99.90;;;;;;5002578;28;20230;-85
2023/12/12 02:44:07;;;;;;;30.33;12.43;;;6.40;99.90;;;;;;5001773;28;20674;-85
2023/12/12 02:46:35;;;;;;;23.93;12.03;;;6.40;99.90;;;;;;5019965;28;20309;-85
2023/12/12 02:49:02;;;;;;;32.47;13.30;;;6.50;99.90;;;;;;5020883;28;20995;-85
2023/12/12 02:51:29;;;;;;;47.63;13.63;;;6.40;99.90;;;;;;4994003;28;20654;-85
2023/12/12 02:53:56;;;;;;;27.60;12.90;;;6.40;99.90;;;;;;5021861;28;20264;-84
2023/12/12 02:56:24;;;;;;;23.63;11.87;;;6.40;99.90;;;;;;5027641;28;20230;-84
2023/12/12 02:58:51;;;;;;;45.97;13.63;;;6.40;99.90;;;;;;5026792;28;20225;-83
2023/12/12 03:01:19;;;;;;;32.27;13.87;;;6.40;99.90;;;;;;5003902;28;20229;-83
2023/12/12 03:03:46;;;;;;;106.30;17.30;;;6.40;99.90;;;;;;5004230;28;20222;-84
2023/12/12 03:06:13;;;;;;;44.67;12.70;;;6.40;99.90;;;;;;5003337;28;20226;-83
2023/12/12 03:08:40;;;;;;;54.77;14.00;;;6.40;99.90;;;;;;5004422;28;20291;-83
2023/12/12 03:11:07;;;;;;;121.20;16.53;;;6.40;99.90;;;;;;5003492;28;20771;-83
2023/12/12 03:13:35;;;;;;;128.93;17.37;;;6.40;99.90;;;;;;5000209;28;20322;-83
2023/12/12 03:16:02;;;;;;;36.23;13.43;;;6.40;99.90;;;;;;5003901;28;20226;-83
2023/12/12 03:18:29;;;;;;;58.13;13.90;;;6.30;99.90;;;;;;5003620;28;20225;-84
2023/12/12 03:20:56;;;;;;;76.23;15.57;;;6.30;99.90;;;;;;5011883;28;20226;-84
2023/12/12 03:23:23;;;;;;;47.97;14.33;;;6.40;99.90;;;;;;5003808;28;20233;-83
2023/12/12 03:25:50;;;;;;;72.13;16.40;;;6.30;99.90;;;;;;5008901;28;20233;-83
2023/12/12 03:28:17;;;;;;;160.87;20.13;;;6.20;99.90;;;;;;4992035;28;20269;-83
2023/12/12 03:30:45;;;;;;;69.23;15.77;;;6.20;99.90;;;;;;5005442;28;20306;-84
2023/12/12 03:33:12;;;;;;;59.30;13.70;;;6.20;99.90;;;;;;5001688;28;20232;-84
2023/12/12 03:35:39;;;;;;;95.37;15.87;;;6.20;99.90;;;;;;5022669;28;20248;-84
2023/12/12 03:38:06;;;;;;;69.33;14.40;;;6.20;99.90;;;;;;5024305;28;21538;-84
2023/12/12 03:40:33;;;;;;;79.77;15.10;;;6.20;99.90;;;;;;5022498;28;20256;-85
2023/12/12 03:43:00;;;;;;;68.83;15.23;;;6.20;99.90;;;;;;5022968;28;20250;-83
2023/12/12 03:45:27;;;;;;;67.70;15.27;;;6.20;99.90;;;;;;5018215;28;20224;-83
2023/12/12 03:47:55;;;;;;;156.33;19.67;;;6.20;99.90;;;;;;5016033;28;20295;-84
2023/12/12 03:50:23;;;;;;;33.10;12.77;;;6.20;99.90;;;;;;4999381;28;20310;-83
2023/12/12 03:52:50;;;;;;;148.80;18.57;;;6.20;99.90;;;;;;5006341;28;20230;-84
2023/12/12 03:55:18;;;;;;;51.90;14.37;;;6.10;99.90;;;;;;5013091;28;20611;-83
2023/12/12 03:57:45;;;;;;;27.67;12.63;;;6.10;99.90;;;;;;4988238;28;20231;-83
2023/12/12 04:00:13;;;;;;;120.17;17.40;;;6.10;99.90;;;;;;4984535;28;20310;-84
2023/12/12 04:02:41;;;;;;;47.03;14.47;;;6.10;99.90;;;;;;4999387;28;20293;-84
2023/12/12 04:05:10;;;;;;;85.70;15.87;;;6.10;99.90;;;;;;5018737;28;20226;-84
2023/12/12 04:07:38;;;;;;;37.90;13.47;;;6.10;99.90;;;;;;5009340;28;20320;-84
2023/12/12 04:10:07;;;;;;;66.57;15.33;;;6.10;99.90;;;;;;5005766;28;20268;-83
2023/12/12 04:12:34;;;;;;;30.13;14.73;;;6.10;99.90;;;;;;4999723;28;20762;-83
2023/12/12 04:15:01;;;;;;;35.97;14.63;;;6.10;99.90;;;;;;5012750;28;20228;-83
2023/12/12 04:17:27;;;;;;;31.97;13.07;;;6.00;99.90;;;;;;5021247;28;20232;-84
2023/12/12 04:19:54;;;;;;;29.93;13.17;;;6.00;99.90;;;;;;5018196;28;20241;-83
2023/12/12 04:22:22;;;;;;;41.13;14.27;;;6.00;99.90;;;;;;5000740;28;20253;-83
2023/12/12 04:24:49;;;;;;;32.03;15.60;;;6.10;99.90;;;;;;5000428;28;20244;-83
2023/12/12 04:27:16;;;;;;;37.87;15.07;;;6.00;99.90;;;;;;5020024;28;20232;-83
2023/12/12 04:29:43;;;;;;;28.20;14.70;;;6.00;99.90;;;;;;5021403;28;20223;-83
2023/12/12 04:32:10;;;;;;;33.67;14.80;;;6.00;99.90;;;;;;5004064;28;20245;-82
2023/12/12 04:34:37;;;;;;;34.63;14.70;;;6.00;99.90;;;;;;5001429;28;20410;-83
2023/12/12 04:37:04;;;;;;;37.13;15.23;;;6.00;99.90;;;;;;5016627;28;20303;-84
2023/12/12 04:39:33;;;;;;;35.67;15.47;;;6.00;99.90;;;;;;5017646;28;20227;-84
2023/12/12 04:41:59;;;;;;;32.63;15.00;;;6.00;99.90;;;;;;5018253;28;20767;-84
2023/12/12 04:44:27;;;;;;;30.27;14.60;;;6.00;99.90;;;;;;4980047;28;20309;-84
2023/12/12 04:46:53;;;;;;;31.20;15.07;;;6.10;99.90;;;;;;4994236;28;20234;-83
2023/12/12 04:49:20;;;;;;;31.67;15.17;;;6.10;99.90;;;;;;5008830;28;20749;-84
2023/12/12 04:51:47;;;;;;;33.50;16.20;;;6.10;99.90;;;;;;5011880;28;20226;-85
2023/12/12 04:54:14;;;;;;;32.90;14.93;;;6.10;99.90;;;;;;5002855;28;20251;-84
2023/12/12 04:56:43;;;;;;;37.83;14.97;;;6.10;99.90;;;;;;5022208;28;20217;-83
2023/12/12 04:59:10;;;;;;;45.10;15.03;;;6.10;99.90;;;;;;4996160;28;20618;-83
2023/12/12 05:01:38;;;;;;;32.03;15.43;;;6.10;99.90;;;;;;5005118;28;20220;-83
2023/12/12 05:04:07;;;;;;;30.07;14.97;;;6.00;99.90;;;;;;5022491;28;20789;-83
2023/12/12 05:06:34;;;;;;;33.07;14.77;;;6.00;99.90;;;;;;5009648;28;20650;-83
2023/12/12 05:09:01;;;;;;;25.63;14.43;;;6.00;99.90;;;;;;5020894;28;20233;-83
2023/12/12 05:11:28;;;;;;;27.37;14.17;;;6.00;99.90;;;;;;5019173;28;20283;-83
2023/12/12 05:13:57;;;;;;;26.97;14.60;;;6.00;99.90;;;;;;5004778;28;20254;-84
2023/12/12 05:16:25;;;;;;;32.57;14.83;;;6.10;99.90;;;;;;5016233;28;20221;-84
2023/12/12 05:18:54;;;;;;;44.40;16.33;;;6.10;99.90;;;;;;5003341;28;20229;-84
2023/12/12 05:21:21;;;;;;;28.47;15.30;;;6.10;99.90;;;;;;5017285;28;20227;-85
2023/12/12 05:23:48;;;;;;;82.33;18.17;;;6.10;99.90;;;;;;5018377;28;20225;-84
2023/12/12 05:26:15;;;;;;;179.43;24.20;;;6.10;99.90;;;;;;5000018;28;20231;-82
2023/12/12 05:28:43;;;;;;;40.03;15.63;;;6.20;99.90;;;;;;5020951;28;20306;-84
2023/12/12 05:31:11;;;;;;;73.17;18.50;;;6.20;99.90;;;;;;5017909;28;20253;-85
2023/12/12 05:33:38;;;;;;;186.87;23.73;;;6.20;99.90;;;;;;5012618;28;20729;-85
2023/12/12 05:36:06;;;;;;;73.90;17.30;;;6.30;99.90;;;;;;5000974;28;20232;-84
2023/12/12 05:38:33;;;;;;;149.93;20.43;;;6.30;99.90;;;;;;5017396;28;20221;-84
2023/12/12 05:41:00;;;;;;;88.03;17.17;;;6.30;99.90;;;;;;5019150;28;20246;-85
2023/12/12 05:43:27;;;;;;;92.17;16.57;;;6.30;99.90;;;;;;5017244;28;20230;-85
2023/12/12 05:45:55;;;;;;;39.87;16.27;;;6.30;99.90;;;;;;5004371;28;20382;-84
2023/12/12 05:48:24;;;;;;;406.73;33.13;;;6.30;99.90;;;;;;5013626;28;20248;-84
2023/12/12 05:50:51;;;;;;;41.50;14.33;;;6.30;99.90;;;;;;5001358;28;20227;-84
2023/12/12 05:53:18;;;;;;;96.40;17.37;;;6.30;99.90;;;;;;5017581;28;20270;-85
2023/12/12 05:55:44;;;;;;;29.47;13.03;;;6.30;99.90;;;;;;5001837;28;20230;-85
2023/12/12 05:58:11;;;;;;;57.47;14.00;;;6.30;99.90;;;;;;5004585;28;20237;-86
2023/12/12 06:00:39;;;;;;;35.83;12.93;;;6.30;99.90;;;;;;5020301;28;20271;-83
2023/12/12 06:03:08;;;;;;;36.80;13.47;;;6.30;99.90;;;;;;5019057;28;20828;-84
2023/12/12 06:05:36;;;;;;;35.03;13.60;;;6.30;99.90;;;;;;4993864;28;20234;-85
2023/12/12 06:08:03;;;;;;;39.10;14.13;;;6.30;99.90;;;;;;5021268;28;20223;-84
2023/12/12 06:10:30;;;;;;;82.13;16.87;;;6.30;99.90;;;;;;4999863;28;20389;-84
2023/12/12 06:12:58;;;;;;;35.97;14.20;;;6.30;99.90;;;;;;5006846;28;20229;-83
2023/12/12 06:15:25;;;;;;;67.57;14.93;;;6.30;99.90;;;;;;5011821;28;20237;-82
2023/12/12 06:17:52;;;;;;;62.13;15.07;;;6.30;99.90;;;;;;5001734;28;20229;-83
2023/12/12 06:20:19;;;;;;;34.37;13.43;;;6.30;99.90;;;;;;5013425;28;20454;-83
2023/12/12 06:22:47;;;;;;;29.87;14.00;;;6.30;99.90;;;;;;5009013;28;20312;-83
2023/12/12 06:25:14;;;;;;;49.67;13.80;;;6.30;99.90;;;;;;4982735;28;20264;-82
2023/12/12 06:27:40;;;;;;;38.20;14.40;;;6.30;99.90;;;;;;4995017;28;20259;-83
2023/12/12 06:30:08;;;;;;;33.60;12.80;;;6.30;99.90;;;;;;5015216;28;20225;-83
2023/12/12 06:32:35;;;;;;;38.60;14.53;;;6.30;99.90;;;;;;5002501;28;20284;-83
2023/12/12 06:35:04;;;;;;;40.00;13.40;;;6.30;99.90;;;;;;5008726;28;20405;-83
2023/12/12 06:37:31;;;;;;;31.10;13.70;;;6.30;99.90;;;;;;5018848;28;20228;-83
2023/12/12 06:40:00;;;;;;;35.93;12.77;;;6.30;99.90;;;;;;5020348;28;20225;-83
2023/12/12 06:42:26;;;;;;;43.53;12.63;;;6.30;99.90;;;;;;4992356;28;20229;-83
2023/12/12 06:44:53;;;;;;;48.57;13.80;;;6.30;99.90;;;;;;5025650;28;20231;-83
2023/12/12 06:47:20;;;;;;;38.13;14.30;;;6.30;99.90;;;;;;5025314;28;20725;-83
2023/12/12 06:49:47;;;;;;;40.17;14.90;;;6.30;99.90;;;;;;5022386;28;20271;-84
2023/12/12 06:52:13;;;;;;;34.73;13.23;;;6.30;99.90;;;;;;5001979;28;20306;-82
2023/12/12 06:54:41;;;;;;;47.23;14.90;;;6.30;99.90;;;;;;5022355;28;20645;-83
2023/12/12 06:57:09;;;;;;;31.70;14.20;;;6.30;99.90;;;;;;5024882;28;20264;-83
2023/12/12 06:59:36;;;;;;;47.67;14.93;;;6.30;99.90;;;;;;5024028;28;20647;-83
2023/12/12 07:02:03;;;;;;;66.67;17.43;;;6.30;99.90;;;;;;5003812;28;20236;-83
2023/12/12 07:04:30;;;;;;;58.77;16.93;;;6.30;99.90;;;;;;4989685;28;20236;-83
2023/12/12 07:06:57;;;;;;;55.27;27.20;;;6.30;99.90;;;;;;4998117;28;20226;-84
2023/12/12 07:09:23;;;;;;;36.47;15.97;;;6.30;99.90;;;;;;4996465;28;20654;-84
2023/12/12 07:11:50;;;;;;;37.63;17.27;;;6.30;99.90;;;;;;5007478;28;20225;-84
2023/12/12 07:14:18;;;;;;;45.43;17.00;;;6.30;99.90;;;;;;5018311;28;20780;-83
2023/12/12 07:16:45;;;;;;;70.20;16.33;;;6.30;99.90;;;;;;4998495;28;20250;-83
2023/12/12 07:19:12;;;;;;;59.03;15.53;;;6.20;99.90;;;;;;5012847;28;20293;-84
2023/12/12 07:21:40;;;;;;;71.00;18.83;;;6.20;99.90;;;;;;5022881;28;20997;-83
2023/12/12 07:24:07;;;;;;;39.80;15.47;;;6.20;99.90;;;;;;5012888;28;20664;-84
2023/12/12 07:26:34;;;;;;;50.80;15.57;;;6.20;99.90;;;;;;5004819;28;20760;-84
2023/12/12 07:29:01;;;;;;;56.10;15.17;;;6.20;99.90;;;;;;5018161;28;20718;-84
2023/12/12 07:31:29;;;;;;;67.43;16.80;;;6.30;99.90;;;;;;5006346;28;20232;-83
2023/12/12 07:33:56;;;;;;;87.37;17.93;;;6.30;99.90;;;;;;5003888;28;20250;-83
2023/12/12 07:36:23;;;;;;;53.03;16.40;;;6.30;99.90;;;;;;4996553;28;20608;-84
2023/12/12 07:38:51;;;;;;;63.10;16.40;;;6.30;99.90;;;;;;4995872;28;20732;-84
2023/12/12 07:41:18;;;;;;;86.17;18.73;;;6.30;99.90;;;;;;5008770;28;20260;-84
2023/12/12 07:43:45;;;;;;;61.17;17.63;;;6.30;99.90;;;;;;5024970;28;20226;-84
2023/12/12 07:46:11;;;;;;;51.40;16.00;;;6.30;99.90;;;;;;5007662;28;20310;-83
2023/12/12 07:48:40;;;;;;;49.63;16.50;;;6.30;99.90;;;;;;5001433;28;20613;-83
2023/12/12 07:51:07;;;;;;;49.53;16.93;;;6.30;99.90;;;;;;5004159;28;20254;-84
2023/12/12 07:53:34;;;;;;;49.17;16.17;;;6.30;99.90;;;;;;5004813;28;20330;-84
2023/12/12 07:56:01;;;;;;;55.03;16.90;;;6.30;99.90;;;;;;5025217;28;20235;-85
2023/12/12 07:58:28;;;;;;;115.43;19.03;;;6.30;99.90;;;;;;5003895;28;20280;-84
2023/12/12 08:00:55;;;;;;;66.03;17.73;;;6.30;99.90;;;;;;5004751;28;20314;-85
2023/12/12 08:03:22;;;;;;;58.10;15.90;;;6.30;99.90;;;;;;5002790;28;20311;-83
2023/12/12 08:05:50;;;;;;;53.87;15.87;;;6.40;99.90;;;;;;5003691;28;20237;-85
2023/12/12 08:08:17;;;;;;;46.33;14.67;;;6.40;99.90;;;;;;5000352;28;20232;-85
2023/12/12 08:10:45;;;;;;;82.47;17.03;;;6.40;99.90;;;;;;5016167;28;20230;-85
2023/12/12 08:13:11;;;;;;;40.93;14.43;;;6.40;99.90;;;;;;5010096;28;21291;-86
2023/12/12 08:15:38;;;;;;;46.90;14.60;;;6.40;99.90;;;;;;5007234;28;20787;-88
2023/12/12 08:18:05;;;;;;;42.37;15.10;;;6.40;99.90;;;;;;5024071;28;20230;-86
2023/12/12 08:20:31;;;;;;;99.97;16.63;;;6.40;99.90;;;;;;5009501;28;20790;-85
2023/12/12 08:23:00;;;;;;;42.67;14.10;;;6.40;99.90;;;;;;5007065;28;20229;-85
2023/12/12 08:25:26;;;;;;;41.53;14.07;;;6.40;99.90;;;;;;4992121;28;20224;-85
2023/12/12 08:27:54;;;;;;;41.43;14.77;;;6.40;99.90;;;;;;5011973;28;20234;-84
2023/12/12 08:30:21;;;;;;;37.77;14.70;;;6.40;99.90;;;;;;4994872;28;20241;-85
2023/12/12 08:32:48;;;;;;;40.73;15.30;;;6.40;99.90;;;;;;5005777;28;20528;-85
2023/12/12 08:35:15;;;;;;;37.70;14.90;;;6.30;99.90;;;;;;4994858;28;20231;-85
2023/12/12 08:37:42;;;;;;;37.23;15.27;;;6.30;99.90;;;;;;5004600;28;20315;-85
2023/12/12 08:40:11;;;;;;;33.10;13.53;;;6.30;99.90;;;;;;5015500;28;20389;-86
2023/12/12 08:42:39;;;;;;;30.47;13.23;;;6.30;99.90;;;;;;4993773;28;20227;-86
2023/12/12 08:45:08;;;;;;;42.60;15.30;;;6.30;99.90;;;;;;5008436;28;20221;-85
2023/12/12 08:47:36;;;;;;;39.00;15.53;;;6.30;99.90;;;;;;4987729;28;20774;-85
2023/12/12 08:50:04;;;;;;;49.77;17.17;;;6.20;99.90;;;;;;4999040;28;20274;-85
2023/12/12 08:52:32;;;;;;;41.20;16.57;;;6.20;99.90;;;;;;4998623;28;20231;-85
2023/12/12 08:54:59;;;;;;;34.47;15.50;;;6.20;99.90;;;;;;4999214;28;20238;-85
2023/12/12 08:57:27;;;;;;;36.30;15.40;;;6.20;99.90;;;;;;5019241;28;20325;-85
2023/12/12 08:59:54;;;;;;;45.10;15.77;;;6.20;99.90;;;;;;5003596;28;20227;-85
2023/12/12 09:02:21;;;;;;;34.77;14.43;;;6.20;99.90;;;;;;4999364;28;20221;-85
2023/12/12 09:04:47;;;;;;;33.37;15.40;;;6.20;99.90;;;;;;5002486;28;20229;-85
2023/12/12 09:07:14;;;;;;;32.13;15.93;;;6.20;99.90;;;;;;5001494;28;20317;-86
2023/12/12 09:09:41;;;;;;;37.07;16.43;;;6.20;99.90;;;;;;5001839;28;20218;-85
2023/12/12 09:12:08;;;;;;;34.10;15.70;;;6.20;99.90;;;;;;5001353;28;20338;-85
2023/12/12 09:14:36;;;;;;;32.50;14.97;;;6.20;99.90;;;;;;5004289;28;20223;-85
2023/12/12 09:17:03;;;;;;;31.70;14.97;;;6.20;99.90;;;;;;5002574;28;20671;-85
2023/12/12 09:19:30;;;;;;;34.90;15.73;;;6.20;99.90;;;;;;5026755;28;20224;-85
2023/12/12 09:21:57;;;;;;;31.53;15.77;;;6.30;99.90;;;;;;5024484;28;20786;-85
2023/12/12 09:24:24;;;;;;;35.03;15.97;;;6.30;99.90;;;;;;5013195;28;20246;-84
2023/12/12 09:26:51;;;;;;;27.77;14.63;;;6.30;99.90;;;;;;5021076;28;20229;-85
2023/12/12 09:29:17;;;;;;;31.13;14.53;;;6.30;99.90;;;;;;5031158;28;20713;-85
2023/12/12 09:31:46;;;;;;;25.63;13.17;;;6.40;99.90;;;;;;5022916;28;20215;-85
2023/12/12 09:34:13;;;;;;;26.37;14.30;;;6.40;99.90;;;;;;5009705;28;20227;-85
2023/12/12 09:36:40;;;;;;;29.70;14.23;;;6.40;99.90;;;;;;5022479;28;20304;-85
2023/12/12 09:39:07;;;;;;;30.60;15.47;;;6.40;99.90;;;;;;5003657;28;20260;-85
2023/12/12 09:41:34;;;;;;;31.07;15.13;;;6.50;99.90;;;;;;5000506;28;20294;-85
2023/12/12 09:44:02;;;;;;;30.50;15.13;;;6.50;99.90;;;;;;5006614;28;20323;-85
2023/12/12 09:46:31;;;;;;;28.73;15.10;;;6.50;99.90;;;;;;5001773;28;20223;-85
2023/12/12 09:49:00;;;;;;;27.50;14.87;;;6.50;99.90;;;;;;5003086;28;20726;-86
2023/12/12 09:51:27;;;;;;;25.83;13.57;;;6.60;99.90;;;;;;5009449;28;20283;-85
2023/12/12 09:53:55;;;;;;;25.33;13.07;;;6.60;99.90;;;;;;5000969;28;20753;-85
2023/12/12 09:56:24;;;;;;;20.43;11.57;;;6.70;99.90;;;;;;5001396;28;20238;-85
2023/12/12 09:58:51;;;;;;;20.93;11.23;;;6.70;99.90;;;;;;5018352;28;20744;-85
2023/12/12 10:01:18;;;;;;;20.80;11.60;;;6.70;99.90;;;;;;5001527;28;20232;-85
2023/12/12 10:03:45;;;;;;;20.30;11.77;;;6.70;99.90;;;;;;5003992;28;20224;-85
2023/12/12 10:06:13;;;;;;;19.67;11.23;;;6.70;99.90;;;;;;5002807;28;20685;-85
2023/12/12 10:08:41;;;;;;;21.13;11.17;;;6.70;99.90;;;;;;5002465;28;20226;-86
2023/12/12 10:11:09;;;;;;;19.00;11.53;;;6.70;99.90;;;;;;5006002;28;20605;-85
2023/12/12 10:13:50;;;;;;;21.83;12.10;;;6.80;99.90;;;;;;5004969;28;20867;-85
2023/12/12 10:16:17;;;;;;;21.57;12.63;;;6.80;99.90;;;;;;5026032;28;20249;-86
2023/12/12 10:18:46;;;;;;;22.50;11.43;;;6.80;99.90;;;;;;5013053;28;20295;-85
2023/12/12 10:21:18;;;;;;;20.17;11.73;;;6.90;99.90;;;;;;5006410;28;20410;-85
2023/12/12 10:23:46;;;;;;;20.13;11.80;;;6.90;99.90;;;;;;5007535;28;20654;-85
2023/12/12 10:26:13;;;;;;;22.60;12.20;;;7.00;99.90;;;;;;5009439;28;20302;-85
2023/12/12 10:28:41;;;;;;;22.17;12.43;;;7.00;99.90;;;;;;5007528;28;20220;-85
2023/12/12 10:31:09;;;;;;;18.33;11.77;;;7.00;99.90;;;;;;5003952;28;20229;-86
2023/12/12 10:33:38;;;;;;;19.53;11.40;;;7.00;99.90;;;;;;5005561;28;20305;-85
2023/12/12 10:36:09;;;;;;;20.60;12.23;;;7.10;99.90;;;;;;5005942;28;20636;-85
2023/12/12 10:38:38;;;;;;;31.70;18.50;;;7.10;99.90;;;;;;4988031;28;20232;-85
2023/12/12 10:41:13;;;;;;;33.23;18.73;;;7.10;99.90;;;;;;5000574;28;20312;-86
2023/12/12 10:43:42;;;;;;;28.23;15.97;;;7.20;99.90;;;;;;5016388;28;20216;-86
2023/12/12 10:46:11;;;;;;;24.03;13.03;;;7.20;99.90;;;;;;5024681;28;20477;-85
2023/12/12 10:48:46;;;;;;;20.77;11.07;;;7.20;99.90;;;;;;4997533;28;20696;-84
2023/12/12 10:51:13;;;;;;;22.87;13.00;;;7.20;99.90;;;;;;4986116;28;20313;-86
2023/12/12 10:53:43;;;;;;;20.00;11.77;;;7.30;99.90;;;;;;4991270;28;20284;-85
2023/12/12 10:56:12;;;;;;;21.03;12.20;;;7.40;99.90;;;;;;5022258;28;20250;-86
2023/12/12 10:58:40;;;;;;;21.17;12.77;;;7.40;99.90;;;;;;5025401;28;20228;-85
2023/12/12 11:01:09;;;;;;;19.60;12.70;;;7.50;99.90;;;;;;5023248;28;20785;-85
2023/12/12 11:03:36;;;;;;;20.37;12.13;;;7.50;99.90;;;;;;4994506;28;20246;-84
2023/12/12 11:06:04;;;;;;;22.07;12.30;;;7.50;99.90;;;;;;5028872;28;20684;-85
2023/12/12 11:08:32;;;;;;;22.33;12.93;;;7.50;99.90;;;;;;5022106;28;20233;-85
2023/12/12 11:11:06;;;;;;;22.87;12.53;;;7.50;99.90;;;;;;5014959;28;20482;-85
2023/12/12 11:13:36;;;;;;;20.23;11.93;;;7.50;99.90;;;;;;5032210;28;20303;-85
2023/12/12 11:16:06;;;;;;;17.03;11.33;;;7.40;99.90;;;;;;5035316;28;20227;-85
2023/12/12 11:18:35;;;;;;;20.90;12.00;;;7.50;99.90;;;;;;5001193;28;20306;-85
2023/12/12 11:21:03;;;;;;;19.43;11.77;;;7.50;99.90;;;;;;5012115;28;20231;-85
2023/12/12 11:23:54;;;;;;;19.43;11.53;;;7.50;99.90;;;;;;5013968;28;20306;-85
2023/12/12 11:26:26;;;;;;;18.73;10.67;;;7.40;99.90;;;;;;5009291;28;20227;-85
2023/12/12 11:28:54;;;;;;;18.20;10.33;;;7.40;99.90;;;;;;5021223;28;20317;-84
2023/12/12 11:31:22;;;;;;;15.50;9.73;;;7.40;99.90;;;;;;5013587;28;20227;-85
2023/12/12 11:34:09;;;;;;;14.47;8.73;;;7.30;99.90;;;;;;4996846;28;20229;-85
2023/12/12 11:36:57;;;;;;;15.60;9.10;;;7.30;99.90;;;;;;5009792;28;20329;-85
2023/12/12 11:39:34;;;;;;;15.63;9.63;;;7.20;99.90;;;;;;5029223;28;20227;-85
2023/12/12 11:42:06;;;;;;;16.87;10.43;;;7.20;99.90;;;;;;5031128;28;20621;-85
2023/12/12 11:44:43;;;;;;;17.10;9.87;;;7.20;99.90;;;;;;5011242;28;20236;-85
2023/12/12 11:47:14;;;;;;;14.53;8.90;;;7.20;99.90;;;;;;5014662;28;20274;-85
2023/12/12 11:49:43;;;;;;;14.67;9.30;;;7.20;99.90;;;;;;5020826;28;20238;-85
2023/12/12 11:52:10;;;;;;;17.77;10.60;;;7.20;99.90;;;;;;5011997;28;20368;-85
2023/12/12 11:54:38;;;;;;;14.33;8.73;;;7.20;99.90;;;;;;5017327;28;20237;-85
2023/12/12 11:57:08;;;;;;;12.57;8.13;;;7.20;99.90;;;;;;5032006;28;20238;-85
2023/12/12 11:59:34;;;;;;;11.20;7.43;;;7.20;99.90;;;;;;5016905;28;20232;-85
2023/12/12 12:02:01;;;;;;;11.57;7.87;;;7.20;99.90;;;;;;5017093;28;20227;-85
2023/12/12 12:04:28;;;;;;;11.77;7.33;;;7.10;99.90;;;;;;5021905;28;20239;-85
2023/12/12 12:06:56;;;;;;;13.30;7.20;;;7.10;99.90;;;;;;5016236;28;20293;-85
2023/12/12 12:09:23;;;;;;;13.30;8.47;;;7.10;99.90;;;;;;5009248;28;20254;-85
2023/12/12 12:11:51;;;;;;;11.67;7.60;;;7.10;99.90;;;;;;5014265;28;20221;-85
2023/12/12 12:14:23;;;;;;;13.43;8.60;;;7.00;99.90;;;;;;5024008;28;20726;-85
2023/12/12 12:16:56;;;;;;;14.70;9.13;;;7.10;99.90;;;;;;5023743;28;20750;-85
2023/12/12 12:19:48;;;;;;;14.70;9.27;;;7.00;99.90;;;;;;5002725;28;20234;-84
2023/12/12 12:22:15;;;;;;;12.47;8.40;;;7.00;99.90;;;;;;5024539;28;20305;-85
2023/12/12 12:24:43;;;;;;;13.30;9.07;;;7.00;99.90;;;;;;5031030;28;20251;-85
2023/12/12 12:27:10;;;;;;;13.87;8.60;;;7.00;99.90;;;;;;5004385;28;20307;-86
2023/12/12 12:29:39;;;;;;;12.20;8.47;;;7.10;99.90;;;;;;5003202;28;20823;-86
2023/12/12 12:32:12;;;;;;;12.57;8.87;;;7.10;99.90;;;;;;5005468;28;20228;-86
2023/12/12 12:34:39;;;;;;;15.33;9.63;;;7.10;99.90;;;;;;5002211;28;20750;-85
2023/12/12 12:37:06;;;;;;;16.50;10.43;;;7.10;99.90;;;;;;5016386;28;20242;-86
2023/12/12 12:39:41;;;;;;;16.53;10.90;;;7.10;99.90;;;;;;5002724;28;20294;-85
2023/12/12 12:42:08;;;;;;;17.53;10.77;;;7.10;99.90;;;;;;5017971;28;20321;-86